sensor_id;sensor_type;location;lat;lon;timestamp;temperature;humidity
4050;DHT22;2039;50.894;6.888;2022-10-15T00:01:09;14.70;99.90
4050;DHT22;2039;50.894;6.888;2022-10-15T00:03:40;14.70;99.90
4050;DHT22;2039;50.894;6.888;2022-10-15T00:06:19;14.70;99.90
4050;DHT22;2039;50.894;6.888;2022-10-15T00:08:46;14.70;99.90
4050;DHT22;2039;50.894;6.888;2022-10-15T00:11:21;14.70;99.90
4050;DHT22;2039;50.894;6.888;2022-10-15T00:13:47;14.70;99.90
4050;DHT22;2039;50.894;6.888;2022-10-15T00:16:16;14.70;99.90
4050;DHT22;2039;50.894;6.888;2022-10-15T00:18:42;14.70;99.90
4050;DHT22;2039;50.894;6.888;2022-10-15T00:21:10;14.70;99.90
4050;DHT22;2039;50.894;6.888;2022-10-15T00:23:36;14.70;99.90
4050;DHT22;2039;50.894;6.888;2022-10-15T00:26:10;14.70;99.90
4050;DHT22;2039;50.894;6.888;2022-10-15T00:28:37;14.70;99.90
4050;DHT22;2039;50.894;6.888;2022-10-15T00:31:07;14.70;99.90
4050;DHT22;2039;50.894;6.888;2022-10-15T00:33:34;14.70;99.90
4050;DHT22;2039;50.894;6.888;2022-10-15T00:36:06;14.70;99.90
4050;DHT22;2039;50.894;6.888;2022-10-15T00:38:33;14.60;99.90
4050;DHT22;2039;50.894;6.888;2022-10-15T00:40:59;14.60;99.90
4050;DHT22;2039;50.894;6.888;2022-10-15T00:46:05;14.50;99.90
4050;DHT22;2039;50.894;6.888;2022-10-15T00:48:32;14.50;99.90
4050;DHT22;2039;50.894;6.888;2022-10-15T00:50:59;14.50;99.90
4050;DHT22;2039;50.894;6.888;2022-10-15T00:53:26;14.50;99.90
4050;DHT22;2039;50.894;6.888;2022-10-15T00:55:52;14.50;99.90
4050;DHT22;2039;50.894;6.888;2022-10-15T00:58:20;14.50;99.90
4050;DHT22;2039;50.894;6.888;2022-10-15T01:00:53;14.40;99.90
4050;DHT22;2039;50.894;6.888;2022-10-15T01:03:19;14.40;99.90
4050;DHT22;2039;50.894;6.888;2022-10-15T01:05:47;14.30;99.90
4050;DHT22;2039;50.894;6.888;2022-10-15T01:08:13;14.30;99.90
4050;DHT22;2039;50.894;6.888;2022-10-15T01:13:37;14.20;99.90
4050;DHT22;2039;50.894;6.888;2022-10-15T01:16:17;14.10;99.90
4050;DHT22;2039;50.894;6.888;2022-10-15T01:18:58;14.10;99.90
4050;DHT22;2039;50.894;6.888;2022-10-15T01:21:43;14.00;99.90
4050;DHT22;2039;50.894;6.888;2022-10-15T01:27:35;14.00;99.90
4050;DHT22;2039;50.894;6.888;2022-10-15T01:30:24;13.90;99.90
4050;DHT22;2039;50.894;6.888;2022-10-15T01:33:04;13.80;99.90
4050;DHT22;2039;50.894;6.888;2022-10-15T01:38:24;13.70;99.90
4050;DHT22;2039;50.894;6.888;2022-10-15T01:40:57;13.60;99.90
4050;DHT22;2039;50.894;6.888;2022-10-15T01:43:42;13.70;99.90
4050;DHT22;2039;50.894;6.888;2022-10-15T01:46:15;13.70;99.90
4050;DHT22;2039;50.894;6.888;2022-10-15T01:48:42;13.60;99.90
4050;DHT22;2039;50.894;6.888;2022-10-15T01:51:10;13.60;99.90
4050;DHT22;2039;50.894;6.888;2022-10-15T01:53:37;13.60;99.90
4050;DHT22;2039;50.894;6.888;2022-10-15T01:56:08;13.60;99.90
4050;DHT22;2039;50.894;6.888;2022-10-15T01:58:38;13.60;99.90
4050;DHT22;2039;50.894;6.888;2022-10-15T02:01:05;13.50;99.90
4050;DHT22;2039;50.894;6.888;2022-10-15T02:03:31;13.60;99.90
4050;DHT22;2039;50.894;6.888;2022-10-15T02:06:05;13.60;99.90
4050;DHT22;2039;50.894;6.888;2022-10-15T02:08:44;13.50;99.90
4050;DHT22;2039;50.894;6.888;2022-10-15T02:11:14;13.50;99.90
4050;DHT22;2039;50.894;6.888;2022-10-15T02:13:59;13.50;99.90
4050;DHT22;2039;50.894;6.888;2022-10-15T02:21:44;13.50;99.90
4050;DHT22;2039;50.894;6.888;2022-10-15T02:24:24;13.50;99.90
4050;DHT22;2039;50.894;6.888;2022-10-15T02:26:51;13.50;99.90
4050;DHT22;2039;50.894;6.888;2022-10-15T02:29:20;13.50;99.90
4050;DHT22;2039;50.894;6.888;2022-10-15T02:31:47;13.60;99.90
4050;DHT22;2039;50.894;6.888;2022-10-15T02:34:19;13.60;99.90
4050;DHT22;2039;50.894;6.888;2022-10-15T02:36:47;13.60;99.90
4050;DHT22;2039;50.894;6.888;2022-10-15T02:39:17;13.70;99.90
4050;DHT22;2039;50.894;6.888;2022-10-15T02:41:45;13.70;99.90
4050;DHT22;2039;50.894;6.888;2022-10-15T02:44:11;13.70;99.90
4050;DHT22;2039;50.894;6.888;2022-10-15T02:46:37;13.70;99.90
4050;DHT22;2039;50.894;6.888;2022-10-15T02:49:02;13.80;99.90
4050;DHT22;2039;50.894;6.888;2022-10-15T02:51:31;13.70;99.90
4050;DHT22;2039;50.894;6.888;2022-10-15T02:53:59;13.80;99.90
4050;DHT22;2039;50.894;6.888;2022-10-15T02:56:25;13.80;99.90
4050;DHT22;2039;50.894;6.888;2022-10-15T02:58:50;13.80;99.90
4050;DHT22;2039;50.894;6.888;2022-10-15T03:01:16;13.80;99.90
4050;DHT22;2039;50.894;6.888;2022-10-15T03:03:42;13.80;99.90
4050;DHT22;2039;50.894;6.888;2022-10-15T03:06:08;13.80;99.90
4050;DHT22;2039;50.894;6.888;2022-10-15T03:08:34;13.80;99.90
4050;DHT22;2039;50.894;6.888;2022-10-15T03:11:00;13.80;99.90
4050;DHT22;2039;50.894;6.888;2022-10-15T03:13:27;13.80;99.90
4050;DHT22;2039;50.894;6.888;2022-10-15T03:15:52;13.80;99.90
4050;DHT22;2039;50.894;6.888;2022-10-15T03:18:18;13.80;99.90
4050;DHT22;2039;50.894;6.888;2022-10-15T03:20:44;13.80;99.90
4050;DHT22;2039;50.894;6.888;2022-10-15T03:23:17;13.80;99.90
4050;DHT22;2039;50.894;6.888;2022-10-15T03:25:42;13.80;99.90
4050;DHT22;2039;50.894;6.888;2022-10-15T03:28:08;13.80;99.90
4050;DHT22;2039;50.894;6.888;2022-10-15T03:30:33;13.80;99.90
4050;DHT22;2039;50.894;6.888;2022-10-15T03:32:59;13.80;99.90
4050;DHT22;2039;50.894;6.888;2022-10-15T03:35:25;13.80;99.90
4050;DHT22;2039;50.894;6.888;2022-10-15T03:37:50;13.80;99.90
4050;DHT22;2039;50.894;6.888;2022-10-15T03:40:16;13.80;99.90
4050;DHT22;2039;50.894;6.888;2022-10-15T03:42:42;13.80;99.90
4050;DHT22;2039;50.894;6.888;2022-10-15T03:45:08;13.80;99.90
4050;DHT22;2039;50.894;6.888;2022-10-15T03:47:34;13.80;99.90
4050;DHT22;2039;50.894;6.888;2022-10-15T03:50:00;13.80;99.90
4050;DHT22;2039;50.894;6.888;2022-10-15T03:52:25;13.80;99.90
4050;DHT22;2039;50.894;6.888;2022-10-15T03:54:51;13.90;99.90
4050;DHT22;2039;50.894;6.888;2022-10-15T03:57:17;13.90;99.90
4050;DHT22;2039;50.894;6.888;2022-10-15T03:59:42;13.90;99.90
4050;DHT22;2039;50.894;6.888;2022-10-15T04:02:08;13.90;99.90
4050;DHT22;2039;50.894;6.888;2022-10-15T04:04:34;13.90;99.90
4050;DHT22;2039;50.894;6.888;2022-10-15T04:06:59;13.90;99.90
4050;DHT22;2039;50.894;6.888;2022-10-15T04:09:25;13.90;99.90
4050;DHT22;2039;50.894;6.888;2022-10-15T04:11:51;13.90;99.90
4050;DHT22;2039;50.894;6.888;2022-10-15T04:14:16;13.90;99.90
4050;DHT22;2039;50.894;6.888;2022-10-15T04:16:43;13.90;99.90
4050;DHT22;2039;50.894;6.888;2022-10-15T04:19:09;13.90;99.90
4050;DHT22;2039;50.894;6.888;2022-10-15T04:21:35;14.00;99.90
4050;DHT22;2039;50.894;6.888;2022-10-15T04:24:00;14.00;99.90
4050;DHT22;2039;50.894;6.888;2022-10-15T04:26:26;14.00;99.90
4050;DHT22;2039;50.894;6.888;2022-10-15T04:28:51;14.00;99.90
4050;DHT22;2039;50.894;6.888;2022-10-15T04:31:17;13.90;99.90
4050;DHT22;2039;50.894;6.888;2022-10-15T04:33:43;13.90;99.90
4050;DHT22;2039;50.894;6.888;2022-10-15T04:36:12;13.80;99.90
4050;DHT22;2039;50.894;6.888;2022-10-15T04:38:38;13.80;99.90
4050;DHT22;2039;50.894;6.888;2022-10-15T04:41:07;13.80;99.90
4050;DHT22;2039;50.894;6.888;2022-10-15T04:43:34;13.70;99.90
4050;DHT22;2039;50.894;6.888;2022-10-15T04:46:01;13.60;99.90
4050;DHT22;2039;50.894;6.888;2022-10-15T04:48:29;13.60;99.90
4050;DHT22;2039;50.894;6.888;2022-10-15T04:51:05;13.50;99.90
4050;DHT22;2039;50.894;6.888;2022-10-15T04:53:32;13.50;99.90
4050;DHT22;2039;50.894;6.888;2022-10-15T04:56:06;13.40;99.90
4050;DHT22;2039;50.894;6.888;2022-10-15T04:58:34;13.40;99.90
4050;DHT22;2039;50.894;6.888;2022-10-15T05:01:05;13.40;99.90
4050;DHT22;2039;50.894;6.888;2022-10-15T05:03:31;13.40;99.90
4050;DHT22;2039;50.894;6.888;2022-10-15T05:06:05;13.40;99.90
4050;DHT22;2039;50.894;6.888;2022-10-15T05:08:34;13.50;99.90
4050;DHT22;2039;50.894;6.888;2022-10-15T05:11:04;13.50;99.90
4050;DHT22;2039;50.894;6.888;2022-10-15T05:13:34;13.50;99.90
4050;DHT22;2039;50.894;6.888;2022-10-15T05:18:34;13.60;99.90
4050;DHT22;2039;50.894;6.888;2022-10-15T05:21:00;13.60;99.90
4050;DHT22;2039;50.894;6.888;2022-10-15T05:23:26;13.60;99.90
4050;DHT22;2039;50.894;6.888;2022-10-15T05:25:52;13.60;99.90
4050;DHT22;2039;50.894;6.888;2022-10-15T05:28:18;13.60;99.90
4050;DHT22;2039;50.894;6.888;2022-10-15T05:30:44;13.70;99.90
4050;DHT22;2039;50.894;6.888;2022-10-15T05:33:10;13.70;99.90
4050;DHT22;2039;50.894;6.888;2022-10-15T05:35:36;13.70;99.90
4050;DHT22;2039;50.894;6.888;2022-10-15T05:38:02;13.60;99.90
4050;DHT22;2039;50.894;6.888;2022-10-15T05:40:29;13.60;99.90
4050;DHT22;2039;50.894;6.888;2022-10-15T05:42:55;13.70;99.90
4050;DHT22;2039;50.894;6.888;2022-10-15T05:45:21;13.70;99.90
4050;DHT22;2039;50.894;6.888;2022-10-15T05:47:46;13.60;99.90
4050;DHT22;2039;50.894;6.888;2022-10-15T05:50:13;13.60;99.90
4050;DHT22;2039;50.894;6.888;2022-10-15T05:52:39;13.60;99.90
4050;DHT22;2039;50.894;6.888;2022-10-15T05:55:05;13.60;99.90
4050;DHT22;2039;50.894;6.888;2022-10-15T05:57:30;13.60;99.90
4050;DHT22;2039;50.894;6.888;2022-10-15T05:59:56;13.50;99.90
4050;DHT22;2039;50.894;6.888;2022-10-15T06:02:22;13.50;99.90
4050;DHT22;2039;50.894;6.888;2022-10-15T06:04:50;13.50;99.90
4050;DHT22;2039;50.894;6.888;2022-10-15T06:07:17;13.40;99.90
4050;DHT22;2039;50.894;6.888;2022-10-15T06:09:44;13.30;99.90
4050;DHT22;2039;50.894;6.888;2022-10-15T06:12:10;13.30;99.90
4050;DHT22;2039;50.894;6.888;2022-10-15T06:14:35;13.30;99.90
4050;DHT22;2039;50.894;6.888;2022-10-15T06:17:01;13.30;99.90
4050;DHT22;2039;50.894;6.888;2022-10-15T06:19:27;13.30;99.90
4050;DHT22;2039;50.894;6.888;2022-10-15T06:21:52;13.30;99.90
4050;DHT22;2039;50.894;6.888;2022-10-15T06:24:18;13.30;99.90
4050;DHT22;2039;50.894;6.888;2022-10-15T06:26:44;13.30;99.90
4050;DHT22;2039;50.894;6.888;2022-10-15T06:29:09;13.30;99.90
4050;DHT22;2039;50.894;6.888;2022-10-15T06:31:35;13.30;99.90
4050;DHT22;2039;50.894;6.888;2022-10-15T06:34:01;13.20;99.90
4050;DHT22;2039;50.894;6.888;2022-10-15T06:36:26;13.20;99.90
4050;DHT22;2039;50.894;6.888;2022-10-15T06:38:52;13.30;99.90
4050;DHT22;2039;50.894;6.888;2022-10-15T06:41:18;13.30;99.90
4050;DHT22;2039;50.894;6.888;2022-10-15T06:43:43;13.30;99.90
4050;DHT22;2039;50.894;6.888;2022-10-15T06:46:10;13.40;99.90
4050;DHT22;2039;50.894;6.888;2022-10-15T06:48:36;13.50;99.90
4050;DHT22;2039;50.894;6.888;2022-10-15T06:51:02;13.50;99.90
4050;DHT22;2039;50.894;6.888;2022-10-15T06:53:29;13.50;99.90
4050;DHT22;2039;50.894;6.888;2022-10-15T06:55:56;13.50;99.90
4050;DHT22;2039;50.894;6.888;2022-10-15T06:58:27;13.60;99.90
4050;DHT22;2039;50.894;6.888;2022-10-15T07:01:02;13.60;99.90
4050;DHT22;2039;50.894;6.888;2022-10-15T07:03:28;13.60;99.90
4050;DHT22;2039;50.894;6.888;2022-10-15T07:05:54;13.60;99.90
4050;DHT22;2039;50.894;6.888;2022-10-15T07:08:20;13.70;99.90
4050;DHT22;2039;50.894;6.888;2022-10-15T07:10:46;13.70;99.90
4050;DHT22;2039;50.894;6.888;2022-10-15T07:13:12;13.70;99.90
4050;DHT22;2039;50.894;6.888;2022-10-15T07:15:38;13.90;99.90
4050;DHT22;2039;50.894;6.888;2022-10-15T07:18:04;13.90;99.90
4050;DHT22;2039;50.894;6.888;2022-10-15T07:20:30;13.90;99.90
4050;DHT22;2039;50.894;6.888;2022-10-15T07:23:00;13.90;99.90
4050;DHT22;2039;50.894;6.888;2022-10-15T07:25:29;14.00;99.90
4050;DHT22;2039;50.894;6.888;2022-10-15T07:27:55;14.00;99.90
4050;DHT22;2039;50.894;6.888;2022-10-15T07:30:23;14.00;99.90
4050;DHT22;2039;50.894;6.888;2022-10-15T07:32:51;14.10;99.90
4050;DHT22;2039;50.894;6.888;2022-10-15T07:35:19;14.20;99.90
4050;DHT22;2039;50.894;6.888;2022-10-15T07:37:45;14.30;99.90
4050;DHT22;2039;50.894;6.888;2022-10-15T07:40:12;14.30;99.90
4050;DHT22;2039;50.894;6.888;2022-10-15T07:42:38;14.30;99.90
4050;DHT22;2039;50.894;6.888;2022-10-15T07:45:05;14.40;99.90
4050;DHT22;2039;50.894;6.888;2022-10-15T07:47:39;14.60;99.90
4050;DHT22;2039;50.894;6.888;2022-10-15T07:50:06;14.70;99.90
4050;DHT22;2039;50.894;6.888;2022-10-15T07:52:32;14.80;99.90
4050;DHT22;2039;50.894;6.888;2022-10-15T07:54:58;14.90;99.90
4050;DHT22;2039;50.894;6.888;2022-10-15T07:57:24;14.90;99.90
4050;DHT22;2039;50.894;6.888;2022-10-15T07:59:49;14.90;99.90
4050;DHT22;2039;50.894;6.888;2022-10-15T08:02:16;14.90;99.90
4050;DHT22;2039;50.894;6.888;2022-10-15T08:04:42;14.90;99.90
4050;DHT22;2039;50.894;6.888;2022-10-15T08:07:08;14.90;99.90
4050;DHT22;2039;50.894;6.888;2022-10-15T08:09:34;14.90;99.90
4050;DHT22;2039;50.894;6.888;2022-10-15T08:12:02;15.00;99.90
4050;DHT22;2039;50.894;6.888;2022-10-15T08:14:28;15.00;99.90
4050;DHT22;2039;50.894;6.888;2022-10-15T08:16:54;15.00;99.90
4050;DHT22;2039;50.894;6.888;2022-10-15T08:19:20;15.10;99.90
4050;DHT22;2039;50.894;6.888;2022-10-15T08:21:45;15.20;99.90
4050;DHT22;2039;50.894;6.888;2022-10-15T08:24:11;15.20;99.90
4050;DHT22;2039;50.894;6.888;2022-10-15T08:26:37;15.30;99.90
4050;DHT22;2039;50.894;6.888;2022-10-15T08:29:03;15.30;99.90
4050;DHT22;2039;50.894;6.888;2022-10-15T08:31:29;15.30;99.90
4050;DHT22;2039;50.894;6.888;2022-10-15T08:33:59;15.40;99.90
4050;DHT22;2039;50.894;6.888;2022-10-15T08:36:27;15.40;99.90
4050;DHT22;2039;50.894;6.888;2022-10-15T08:38:53;15.50;99.90
4050;DHT22;2039;50.894;6.888;2022-10-15T08:41:28;15.50;99.90
4050;DHT22;2039;50.894;6.888;2022-10-15T08:43:55;15.50;99.90
4050;DHT22;2039;50.894;6.888;2022-10-15T08:46:44;15.60;99.90
4050;DHT22;2039;50.894;6.888;2022-10-15T08:51:54;15.70;99.90
4050;DHT22;2039;50.894;6.888;2022-10-15T08:54:21;15.70;99.90
4050;DHT22;2039;50.894;6.888;2022-10-15T08:56:51;15.80;99.90
4050;DHT22;2039;50.894;6.888;2022-10-15T08:59:29;15.80;99.90
4050;DHT22;2039;50.894;6.888;2022-10-15T09:01:57;15.90;99.90
4050;DHT22;2039;50.894;6.888;2022-10-15T09:07:13;16.00;99.90
4050;DHT22;2039;50.894;6.888;2022-10-15T09:10:00;15.90;99.90
4050;DHT22;2039;50.894;6.888;2022-10-15T09:15:20;16.00;99.90
4050;DHT22;2039;50.894;6.888;2022-10-15T09:17:49;16.00;99.90
4050;DHT22;2039;50.894;6.888;2022-10-15T09:20:24;16.10;99.90
4050;DHT22;2039;50.894;6.888;2022-10-15T09:23:01;16.20;99.90
4050;DHT22;2039;50.894;6.888;2022-10-15T09:25:36;16.20;99.90
4050;DHT22;2039;50.894;6.888;2022-10-15T09:28:09;16.30;99.90
4050;DHT22;2039;50.894;6.888;2022-10-15T09:30:56;16.40;99.90
4050;DHT22;2039;50.894;6.888;2022-10-15T09:33:40;16.50;99.90
4050;DHT22;2039;50.894;6.888;2022-10-15T09:36:39;16.60;99.90
4050;DHT22;2039;50.894;6.888;2022-10-15T09:39:32;16.60;99.90
4050;DHT22;2039;50.894;6.888;2022-10-15T09:44:49;16.70;99.90
4050;DHT22;2039;50.894;6.888;2022-10-15T09:47:38;16.80;99.90
4050;DHT22;2039;50.894;6.888;2022-10-15T09:50:11;16.80;99.90
4050;DHT22;2039;50.894;6.888;2022-10-15T09:55:45;16.90;99.90
4050;DHT22;2039;50.894;6.888;2022-10-15T09:59:05;16.80;99.90
4050;DHT22;2039;50.894;6.888;2022-10-15T10:01:26;16.90;99.90
4050;DHT22;2039;50.894;6.888;2022-10-15T10:04:02;17.00;99.90
4050;DHT22;2039;50.894;6.888;2022-10-15T10:06:43;17.10;99.90
4050;DHT22;2039;50.894;6.888;2022-10-15T10:09:19;17.20;99.90
4050;DHT22;2039;50.894;6.888;2022-10-15T10:11:58;17.30;99.90
4050;DHT22;2039;50.894;6.888;2022-10-15T10:14:31;17.30;99.90
4050;DHT22;2039;50.894;6.888;2022-10-15T10:17:19;17.30;99.90
4050;DHT22;2039;50.894;6.888;2022-10-15T10:20:15;17.30;99.90
4050;DHT22;2039;50.894;6.888;2022-10-15T10:22:53;17.30;99.90
4050;DHT22;2039;50.894;6.888;2022-10-15T10:25:33;17.60;99.90
4050;DHT22;2039;50.894;6.888;2022-10-15T10:28:15;17.70;99.90
4050;DHT22;2039;50.894;6.888;2022-10-15T10:36:18;18.10;99.90
4050;DHT22;2039;50.894;6.888;2022-10-15T10:39:05;18.10;99.90
4050;DHT22;2039;50.894;6.888;2022-10-15T10:41:54;18.10;99.90
4050;DHT22;2039;50.894;6.888;2022-10-15T10:44:30;18.00;99.90
4050;DHT22;2039;50.894;6.888;2022-10-15T10:55:16;18.20;99.90
4050;DHT22;2039;50.894;6.888;2022-10-15T11:00:42;18.20;99.90
4050;DHT22;2039;50.894;6.888;2022-10-15T11:03:37;18.40;99.90
4050;DHT22;2039;50.894;6.888;2022-10-15T11:06:24;18.50;99.90
4050;DHT22;2039;50.894;6.888;2022-10-15T11:09:16;18.70;99.90
4050;DHT22;2039;50.894;6.888;2022-10-15T11:25:40;19.30;99.90
4050;DHT22;2039;50.894;6.888;2022-10-15T11:28:28;19.40;99.90
4050;DHT22;2039;50.894;6.888;2022-10-15T11:37:00;19.70;99.90
4050;DHT22;2039;50.894;6.888;2022-10-15T11:48:00;20.00;99.90
4050;DHT22;2039;50.894;6.888;2022-10-15T11:50:38;19.90;99.90
4050;DHT22;2039;50.894;6.888;2022-10-15T11:56:13;19.70;99.90
4050;DHT22;2039;50.894;6.888;2022-10-15T11:58:57;19.70;99.90
4050;DHT22;2039;50.894;6.888;2022-10-15T12:01:37;19.60;99.90
4050;DHT22;2039;50.894;6.888;2022-10-15T12:06:52;19.30;99.90
4050;DHT22;2039;50.894;6.888;2022-10-15T12:09:34;19.40;99.90
4050;DHT22;2039;50.894;6.888;2022-10-15T12:15:16;19.50;99.90
4050;DHT22;2039;50.894;6.888;2022-10-15T12:20:15;19.70;99.90
4050;DHT22;2039;50.894;6.888;2022-10-15T12:23:02;19.80;99.90
4050;DHT22;2039;50.894;6.888;2022-10-15T12:28:26;20.10;99.90
4050;DHT22;2039;50.894;6.888;2022-10-15T12:30:58;20.00;99.90
4050;DHT22;2039;50.894;6.888;2022-10-15T12:33:36;20.00;99.90
4050;DHT22;2039;50.894;6.888;2022-10-15T12:36:23;20.00;99.90
4050;DHT22;2039;50.894;6.888;2022-10-15T12:38:56;19.90;99.90
4050;DHT22;2039;50.894;6.888;2022-10-15T12:44:27;19.80;99.90
4050;DHT22;2039;50.894;6.888;2022-10-15T12:46:53;20.00;99.90
4050;DHT22;2039;50.894;6.888;2022-10-15T12:51:55;20.40;99.90
4050;DHT22;2039;50.894;6.888;2022-10-15T12:54:40;20.50;99.90
4050;DHT22;2039;50.894;6.888;2022-10-15T13:02:53;20.70;99.90
4050;DHT22;2039;50.894;6.888;2022-10-15T13:05:31;20.60;99.90
4050;DHT22;2039;50.894;6.888;2022-10-15T13:08:00;20.80;99.90
4050;DHT22;2039;50.894;6.888;2022-10-15T13:10:29;20.90;99.90
4050;DHT22;2039;50.894;6.888;2022-10-15T13:12:59;20.90;99.90
4050;DHT22;2039;50.894;6.888;2022-10-15T13:15:27;21.00;99.90
4050;DHT22;2039;50.894;6.888;2022-10-15T13:17:58;21.10;99.90
4050;DHT22;2039;50.894;6.888;2022-10-15T13:20:43;21.00;99.90
4050;DHT22;2039;50.894;6.888;2022-10-15T13:23:43;21.00;99.90
4050;DHT22;2039;50.894;6.888;2022-10-15T13:28:44;20.80;99.90
4050;DHT22;2039;50.894;6.888;2022-10-15T13:31:18;20.70;99.90
4050;DHT22;2039;50.894;6.888;2022-10-15T13:33:48;20.60;99.90
4050;DHT22;2039;50.894;6.888;2022-10-15T13:36:30;20.70;99.90
4050;DHT22;2039;50.894;6.888;2022-10-15T13:41:30;20.70;99.90
4050;DHT22;2039;50.894;6.888;2022-10-15T13:49:03;20.60;99.90
4050;DHT22;2039;50.894;6.888;2022-10-15T13:51:37;20.50;99.90
4050;DHT22;2039;50.894;6.888;2022-10-15T13:54:15;20.40;99.90
4050;DHT22;2039;50.894;6.888;2022-10-15T13:56:59;20.30;99.90
4050;DHT22;2039;50.894;6.888;2022-10-15T13:59:27;20.10;99.90
4050;DHT22;2039;50.894;6.888;2022-10-15T14:01:57;20.10;99.90
4050;DHT22;2039;50.894;6.888;2022-10-15T14:04:30;20.00;99.90
4050;DHT22;2039;50.894;6.888;2022-10-15T14:07:00;20.20;99.90
4050;DHT22;2039;50.894;6.888;2022-10-15T14:09:35;20.20;99.90
4050;DHT22;2039;50.894;6.888;2022-10-15T14:12:19;20.10;99.90
4050;DHT22;2039;50.894;6.888;2022-10-15T14:14:45;20.20;99.90
4050;DHT22;2039;50.894;6.888;2022-10-15T14:19:52;20.40;99.90
4050;DHT22;2039;50.894;6.888;2022-10-15T14:22:20;20.40;99.90
4050;DHT22;2039;50.894;6.888;2022-10-15T14:24:50;20.50;99.90
4050;DHT22;2039;50.894;6.888;2022-10-15T14:27:20;20.50;99.90
4050;DHT22;2039;50.894;6.888;2022-10-15T14:29:48;20.40;99.90
4050;DHT22;2039;50.894;6.888;2022-10-15T14:35:01;20.40;99.90
4050;DHT22;2039;50.894;6.888;2022-10-15T14:42:46;20.20;99.90
4050;DHT22;2039;50.894;6.888;2022-10-15T14:45:25;20.10;99.90
4050;DHT22;2039;50.894;6.888;2022-10-15T14:48:06;20.20;99.90
4050;DHT22;2039;50.894;6.888;2022-10-15T14:50:35;20.10;99.90
4050;DHT22;2039;50.894;6.888;2022-10-15T14:53:07;20.20;99.90
4050;DHT22;2039;50.894;6.888;2022-10-15T14:55:40;20.30;99.90
4050;DHT22;2039;50.894;6.888;2022-10-15T14:58:17;20.40;99.90
4050;DHT22;2039;50.894;6.888;2022-10-15T15:00:45;20.50;99.90
4050;DHT22;2039;50.894;6.888;2022-10-15T15:03:26;20.50;99.90
4050;DHT22;2039;50.894;6.888;2022-10-15T15:05:54;20.40;99.90
4050;DHT22;2039;50.894;6.888;2022-10-15T15:08:20;20.30;99.90
4050;DHT22;2039;50.894;6.888;2022-10-15T15:10:47;20.10;99.90
4050;DHT22;2039;50.894;6.888;2022-10-15T15:13:21;20.00;99.90
4050;DHT22;2039;50.894;6.888;2022-10-15T15:15:48;19.90;99.90
4050;DHT22;2039;50.894;6.888;2022-10-15T15:18:14;19.90;99.90
4050;DHT22;2039;50.894;6.888;2022-10-15T15:20:41;19.80;99.90
4050;DHT22;2039;50.894;6.888;2022-10-15T15:23:19;19.70;99.90
4050;DHT22;2039;50.894;6.888;2022-10-15T15:25:46;19.40;99.90
4050;DHT22;2039;50.894;6.888;2022-10-15T15:28:14;19.10;99.90
4050;DHT22;2039;50.894;6.888;2022-10-15T15:30:43;18.90;99.90
4050;DHT22;2039;50.894;6.888;2022-10-15T15:33:14;18.80;99.90
4050;DHT22;2039;50.894;6.888;2022-10-15T15:35:49;18.60;99.90
4050;DHT22;2039;50.894;6.888;2022-10-15T15:38:23;18.50;99.90
4050;DHT22;2039;50.894;6.888;2022-10-15T15:41:03;18.40;99.90
4050;DHT22;2039;50.894;6.888;2022-10-15T15:43:29;18.30;99.90
4050;DHT22;2039;50.894;6.888;2022-10-15T15:45:55;18.20;99.90
4050;DHT22;2039;50.894;6.888;2022-10-15T15:48:26;18.10;99.90
4050;DHT22;2039;50.894;6.888;2022-10-15T15:51:00;18.00;99.90
4050;DHT22;2039;50.894;6.888;2022-10-15T15:53:27;17.90;99.90
4050;DHT22;2039;50.894;6.888;2022-10-15T15:55:52;17.80;99.90
4050;DHT22;2039;50.894;6.888;2022-10-15T15:58:18;17.90;99.90
4050;DHT22;2039;50.894;6.888;2022-10-15T16:00:44;17.90;99.90
4050;DHT22;2039;50.894;6.888;2022-10-15T16:03:13;17.90;99.90
4050;DHT22;2039;50.894;6.888;2022-10-15T16:05:39;17.90;99.90
4050;DHT22;2039;50.894;6.888;2022-10-15T16:08:06;17.80;99.90
4050;DHT22;2039;50.894;6.888;2022-10-15T16:10:32;17.80;99.90
4050;DHT22;2039;50.894;6.888;2022-10-15T16:12:59;17.80;99.90
4050;DHT22;2039;50.894;6.888;2022-10-15T16:15:24;17.80;99.90
4050;DHT22;2039;50.894;6.888;2022-10-15T16:17:50;17.80;99.90
4050;DHT22;2039;50.894;6.888;2022-10-15T16:20:16;17.80;99.90
4050;DHT22;2039;50.894;6.888;2022-10-15T16:22:41;17.70;99.90
4050;DHT22;2039;50.894;6.888;2022-10-15T16:25:08;17.80;99.90
4050;DHT22;2039;50.894;6.888;2022-10-15T16:27:33;17.70;99.90
4050;DHT22;2039;50.894;6.888;2022-10-15T16:30:00;17.70;99.90
4050;DHT22;2039;50.894;6.888;2022-10-15T16:32:26;17.70;99.90
4050;DHT22;2039;50.894;6.888;2022-10-15T16:34:52;17.60;99.90
4050;DHT22;2039;50.894;6.888;2022-10-15T16:37:18;17.60;99.90
4050;DHT22;2039;50.894;6.888;2022-10-15T16:39:43;17.60;99.90
4050;DHT22;2039;50.894;6.888;2022-10-15T16:42:09;17.60;99.90
4050;DHT22;2039;50.894;6.888;2022-10-15T16:44:35;17.60;99.90
4050;DHT22;2039;50.894;6.888;2022-10-15T16:47:00;17.50;99.90
4050;DHT22;2039;50.894;6.888;2022-10-15T16:49:26;17.50;99.90
4050;DHT22;2039;50.894;6.888;2022-10-15T16:51:52;17.50;99.90
4050;DHT22;2039;50.894;6.888;2022-10-15T16:54:17;17.40;99.90
4050;DHT22;2039;50.894;6.888;2022-10-15T16:56:43;17.40;99.90
4050;DHT22;2039;50.894;6.888;2022-10-15T16:59:12;17.40;99.90
4050;DHT22;2039;50.894;6.888;2022-10-15T17:01:38;17.30;99.90
4050;DHT22;2039;50.894;6.888;2022-10-15T17:04:03;17.20;99.90
4050;DHT22;2039;50.894;6.888;2022-10-15T17:06:30;17.20;99.90
4050;DHT22;2039;50.894;6.888;2022-10-15T17:08:57;17.20;99.90
4050;DHT22;2039;50.894;6.888;2022-10-15T17:11:28;17.20;99.90
4050;DHT22;2039;50.894;6.888;2022-10-15T17:13:56;17.10;99.90
4050;DHT22;2039;50.894;6.888;2022-10-15T17:16:27;17.10;99.90
4050;DHT22;2039;50.894;6.888;2022-10-15T17:18:55;17.10;99.90
4050;DHT22;2039;50.894;6.888;2022-10-15T17:21:25;17.10;99.90
4050;DHT22;2039;50.894;6.888;2022-10-15T17:23:53;17.20;99.90
4050;DHT22;2039;50.894;6.888;2022-10-15T17:26:28;17.10;99.90
4050;DHT22;2039;50.894;6.888;2022-10-15T17:28:54;17.10;99.90
4050;DHT22;2039;50.894;6.888;2022-10-15T17:31:22;17.00;99.90
4050;DHT22;2039;50.894;6.888;2022-10-15T17:33:54;17.10;99.90
4050;DHT22;2039;50.894;6.888;2022-10-15T17:36:24;17.10;99.90
4050;DHT22;2039;50.894;6.888;2022-10-15T17:38:49;17.00;99.90
4050;DHT22;2039;50.894;6.888;2022-10-15T17:41:18;17.00;99.90
4050;DHT22;2039;50.894;6.888;2022-10-15T17:43:44;17.00;99.90
4050;DHT22;2039;50.894;6.888;2022-10-15T17:46:25;17.00;99.90
4050;DHT22;2039;50.894;6.888;2022-10-15T17:48:52;17.00;99.90
4050;DHT22;2039;50.894;6.888;2022-10-15T17:51:21;16.90;99.90
4050;DHT22;2039;50.894;6.888;2022-10-15T17:53:50;16.90;99.90
4050;DHT22;2039;50.894;6.888;2022-10-15T17:56:20;16.90;99.90
4050;DHT22;2039;50.894;6.888;2022-10-15T17:58:48;16.80;99.90
4050;DHT22;2039;50.894;6.888;2022-10-15T18:01:35;16.70;99.90
4050;DHT22;2039;50.894;6.888;2022-10-15T18:04:01;16.50;99.90
4050;DHT22;2039;50.894;6.888;2022-10-15T18:06:27;16.50;99.90
4050;DHT22;2039;50.894;6.888;2022-10-15T18:08:56;16.40;99.90
4050;DHT22;2039;50.894;6.888;2022-10-15T18:11:25;16.30;99.90
4050;DHT22;2039;50.894;6.888;2022-10-15T18:13:51;16.20;99.90
4050;DHT22;2039;50.894;6.888;2022-10-15T18:16:18;16.10;99.90
4050;DHT22;2039;50.894;6.888;2022-10-15T18:18:45;16.10;99.90
4050;DHT22;2039;50.894;6.888;2022-10-15T18:21:13;16.00;99.90
4050;DHT22;2039;50.894;6.888;2022-10-15T18:23:39;16.00;99.90
4050;DHT22;2039;50.894;6.888;2022-10-15T18:26:12;15.90;99.90